Time;durP1;ratioP1;P1;durP2;ratioP2;P2;SDS_P1;SDS_P2;PMS_P1;PMS_P2;Temp;Humidity;BMP_temperature;BMP_pressure;BME280_temperature;BME280_humidity;BME280_pressure;Samples;Min_cycle;Max_cycle;Signal;HPM_P1;HPM_P2
2021/12/25 00:00:52;;;;;;;27.10;16.98;;;12.90;99.90;;;;;;6185835;23;20012;-71
2021/12/25 00:03:19;;;;;;;23.30;17.35;;;12.80;99.90;;;;;;6180499;23;20016;-73
2021/12/25 00:05:52;;;;;;;24.75;16.27;;;12.80;99.90;;;;;;6169020;23;20020;-74
2021/12/25 00:08:23;;;;;;;24.98;17.00;;;12.80;99.90;;;;;;6180760;23;20032;-72
2021/12/25 00:10:50;;;;;;;24.63;16.95;;;12.80;99.90;;;;;;6209128;23;20013;-73
2021/12/25 00:13:20;;;;;;;28.63;17.52;;;12.80;99.90;;;;;;6180823;23;20024;-72
2021/12/25 00:15:51;;;;;;;26.13;18.48;;;12.90;99.90;;;;;;6209434;23;20456;-72
2021/12/25 00:18:21;;;;;;;29.15;19.90;;;12.80;99.90;;;;;;6193884;23;20112;-74
2021/12/25 00:20:49;;;;;;;25.13;18.17;;;12.80;99.90;;;;;;6208286;23;20016;-73
2021/12/25 00:23:15;;;;;;;28.63;19.00;;;12.80;99.90;;;;;;6207994;23;20503;-72
2021/12/25 00:25:47;;;;;;;27.50;18.25;;;12.80;99.90;;;;;;6209174;23;20357;-72
2021/12/25 00:31:08;;;;;;;29.33;18.95;;;12.80;99.90;;;;;;6210378;23;20024;-72
2021/12/25 00:33:54;;;;;;;29.13;18.45;;;12.80;99.90;;;;;;6172155;23;20016;-73
2021/12/25 00:36:23;;;;;;;28.58;19.20;;;12.80;99.90;;;;;;6207166;23;20024;-72
2021/12/25 00:38:52;;;;;;;27.80;18.55;;;12.90;99.90;;;;;;6183563;23;20034;-72
2021/12/25 00:41:22;;;;;;;27.20;18.05;;;12.90;99.90;;;;;;6180750;23;20020;-71
2021/12/25 00:43:49;;;;;;;25.75;19.02;;;12.90;99.90;;;;;;6181131;23;20020;-70
2021/12/25 00:46:15;;;;;;;28.63;18.70;;;12.90;99.90;;;;;;6181305;23;20017;-73
2021/12/25 00:48:42;;;;;;;26.67;17.85;;;12.90;99.90;;;;;;6180950;23;20019;-72
2021/12/25 00:51:08;;;;;;;25.92;17.80;;;12.80;99.90;;;;;;6180953;23;20079;-72
2021/12/25 00:53:36;;;;;;;26.00;17.70;;;12.80;99.90;;;;;;6209640;23;20503;-70
2021/12/25 00:56:02;;;;;;;29.52;18.02;;;12.80;99.90;;;;;;6207732;23;20042;-70
2021/12/25 00:58:28;;;;;;;26.08;18.05;;;12.80;99.90;;;;;;6175958;23;20109;-71
2021/12/25 01:00:55;;;;;;;29.52;19.35;;;12.80;99.90;;;;;;6183517;23;20432;-71
2021/12/25 01:03:22;;;;;;;26.27;17.90;;;12.80;99.90;;;;;;6205870;23;20016;-72
2021/12/25 01:05:48;;;;;;;27.95;18.65;;;12.80;99.90;;;;;;6207691;23;20016;-71
2021/12/25 01:08:14;;;;;;;31.02;18.83;;;12.80;99.90;;;;;;6206264;23;20325;-71
2021/12/25 01:10:40;;;;;;;23.85;17.27;;;12.80;99.90;;;;;;6208067;23;20021;-70
2021/12/25 01:13:28;;;;;;;26.15;16.92;;;12.80;99.90;;;;;;6207498;23;20316;-72
2021/12/25 01:29:30;;;;;;;24.70;17.25;;;13.00;99.90;;;;;;6206435;23;20475;-72
2021/12/25 01:38:08;;;;;;;25.50;18.27;;;12.90;99.90;;;;;;6206263;23;20090;-74
2021/12/25 01:40:25;;;;;;;25.23;17.27;;;12.90;99.90;;;;;;6191200;23;20017;-72
2021/12/25 01:48:25;;;;;;;26.13;18.08;;;12.60;99.90;;;;;;6206355;23;20078;-71
2021/12/25 01:50:53;;;;;;;25.38;19.42;;;12.50;99.90;;;;;;6208369;23;20039;-72
2021/12/25 01:53:19;;;;;;;25.83;19.15;;;12.50;99.90;;;;;;6205721;23;20067;-71
2021/12/25 01:55:46;;;;;;;30.80;19.77;;;12.50;99.90;;;;;;6207122;23;20441;-73
2021/12/25 01:58:12;;;;;;;25.33;18.40;;;12.50;99.90;;;;;;6206523;23;20048;-70
2021/12/25 02:00:45;;;;;;;27.83;19.90;;;12.60;99.90;;;;;;6206510;23;20044;-71
2021/12/25 02:03:14;;;;;;;27.33;19.60;;;12.60;99.90;;;;;;6178988;23;20020;-72
2021/12/25 02:05:41;;;;;;;27.50;18.88;;;12.60;99.90;;;;;;6181426;23;20427;-71
2021/12/25 02:08:06;;;;;;;28.08;19.70;;;12.50;99.90;;;;;;6178993;23;20341;-72
2021/12/25 02:10:33;;;;;;;27.25;19.90;;;12.50;99.90;;;;;;6179336;23;20020;-71
2021/12/25 02:13:02;;;;;;;28.08;19.40;;;12.40;99.90;;;;;;6180857;23;20040;-76
2021/12/25 02:15:31;;;;;;;27.88;19.88;;;12.40;99.90;;;;;;6205306;23;20119;-72
2021/12/25 02:20:40;;;;;;;29.70;19.83;;;12.50;99.90;;;;;;6206332;23;20016;-75
2021/12/25 02:23:18;;;;;;;29.90;19.55;;;12.50;99.90;;;;;;6205307;23;20016;-72
2021/12/25 02:25:44;;;;;;;30.80;22.25;;;12.40;99.90;;;;;;6180923;23;20016;-71
2021/12/25 02:28:12;;;;;;;28.92;20.90;;;12.40;99.90;;;;;;6189653;23;20020;-75
2021/12/25 02:30:40;;;;;;;33.28;21.60;;;12.30;99.90;;;;;;6179956;23;20024;-70
2021/12/25 02:33:06;;;;;;;29.02;20.58;;;12.30;99.90;;;;;;6205289;23;20021;-71
2021/12/25 02:35:33;;;;;;;28.23;21.23;;;12.20;99.90;;;;;;6207524;23;20016;-72
2021/12/25 02:37:59;;;;;;;34.00;22.00;;;12.20;99.90;;;;;;6205654;23;20025;-71
2021/12/25 02:40:27;;;;;;;30.15;21.90;;;12.10;99.90;;;;;;6177550;23;20028;-71
2021/12/25 02:42:54;;;;;;;31.70;22.75;;;12.10;99.90;;;;;;6207219;23;20056;-73
2021/12/25 02:45:22;;;;;;;37.75;23.75;;;12.20;99.90;;;;;;6178909;23;20016;-72
2021/12/25 02:47:52;;;;;;;32.28;23.10;;;12.10;99.90;;;;;;6207240;23;20020;-73
2021/12/25 02:50:39;;;;;;;35.05;23.35;;;12.20;99.90;;;;;;6178201;23;20028;-71
2021/12/25 02:53:08;;;;;;;32.83;22.95;;;12.20;99.90;;;;;;6205681;23;20066;-70
2021/12/25 02:55:36;;;;;;;35.15;21.80;;;12.20;99.90;;;;;;6178992;23;20017;-71
2021/12/25 02:58:04;;;;;;;33.55;22.50;;;12.10;99.90;;;;;;6205814;23;20020;-71
2021/12/25 03:00:33;;;;;;;32.55;23.50;;;12.00;99.90;;;;;;6205048;23;20087;-73
2021/12/25 03:03:01;;;;;;;32.47;22.65;;;12.00;99.90;;;;;;6179557;23;20021;-72
2021/12/25 03:05:27;;;;;;;36.55;24.42;;;12.00;99.90;;;;;;6178921;23;20660;-72
2021/12/25 03:07:53;;;;;;;34.15;24.17;;;12.00;99.90;;;;;;6179589;23;20020;-71
2021/12/25 03:10:20;;;;;;;30.73;22.27;;;12.00;99.90;;;;;;6205571;23;20020;-71
2021/12/25 03:12:53;;;;;;;29.38;19.52;;;12.00;99.90;;;;;;6204682;23;20471;-72
2021/12/25 03:15:30;;;;;;;28.75;20.02;;;12.10;99.90;;;;;;6179112;23;20116;-73
2021/12/25 03:17:57;;;;;;;26.67;19.27;;;12.30;99.90;;;;;;6159095;23;20020;-71
2021/12/25 03:20:24;;;;;;;29.35;18.88;;;12.40;99.90;;;;;;6181029;23;20013;-70
2021/12/25 03:22:50;;;;;;;21.60;15.50;;;12.40;99.90;;;;;;6180381;23;20095;-73
2021/12/25 03:25:18;;;;;;;20.17;13.45;;;12.40;99.90;;;;;;6207539;23;20441;-70
2021/12/25 03:27:45;;;;;;;23.60;14.35;;;12.60;99.90;;;;;;6208627;23;20115;-71
2021/12/25 03:30:15;;;;;;;19.35;12.60;;;12.70;99.90;;;;;;6179871;23;20112;-71
2021/12/25 03:32:42;;;;;;;17.27;12.38;;;12.80;99.90;;;;;;6208599;23;20074;-73
2021/12/25 03:35:09;;;;;;;17.02;12.07;;;12.80;99.90;;;;;;6180049;23;20034;-70
2021/12/25 03:37:36;;;;;;;17.83;12.20;;;12.80;99.90;;;;;;6207928;23;20016;-71
2021/12/25 03:40:03;;;;;;;14.82;10.25;;;12.80;99.90;;;;;;6182839;23;20027;-71
2021/12/25 03:42:28;;;;;;;13.52;9.68;;;12.90;99.90;;;;;;6207329;23;20012;-71
2021/12/25 03:44:55;;;;;;;12.85;9.32;;;13.00;99.90;;;;;;6208547;23;20059;-70
2021/12/25 03:47:34;;;;;;;14.20;9.52;;;13.00;99.90;;;;;;6207352;23;20019;-72
2021/12/25 03:58:20;;;;;;;11.07;7.70;;;13.20;99.90;;;;;;6208150;23;20024;-70
2021/12/25 04:00:48;;;;;;;11.82;6.00;;;13.20;99.90;;;;;;6207589;23;20067;-71
2021/12/25 04:03:26;;;;;;;9.93;6.50;;;13.30;99.90;;;;;;6179892;23;20016;-71
2021/12/25 04:05:52;;;;;;;12.23;7.25;;;13.30;99.90;;;;;;6180900;23;20020;-71
2021/12/25 04:08:24;;;;;;;9.25;6.93;;;13.20;99.90;;;;;;6206433;23;20021;-71
2021/12/25 04:10:56;;;;;;;12.82;9.18;;;13.20;99.90;;;;;;6207321;23;20082;-72
2021/12/25 04:13:22;;;;;;;7.03;5.60;;;13.00;99.90;;;;;;6155440;23;20102;-71
2021/12/25 04:15:50;;;;;;;6.55;4.72;;;13.00;99.90;;;;;;6181999;23;20024;-71
2021/12/25 04:18:15;;;;;;;7.82;5.05;;;13.00;99.90;;;;;;6179096;23;20020;-72
2021/12/25 04:20:41;;;;;;;7.65;5.35;;;13.20;99.90;;;;;;6208088;23;20370;-72
2021/12/25 04:23:16;;;;;;;11.65;7.22;;;13.20;99.90;;;;;;6205376;23;20020;-70
2021/12/25 04:25:43;;;;;;;10.98;7.25;;;13.20;99.90;;;;;;6180263;23;20012;-72
2021/12/25 04:28:32;;;;;;;10.48;6.45;;;13.10;99.90;;;;;;6180263;23;20059;-70
2021/12/25 05:05:55;;;;;;;3.97;2.25;;;13.80;99.90;;;;;;6209706;23;20021;-72
2021/12/25 05:08:21;;;;;;;5.93;2.70;;;13.90;99.90;;;;;;6206941;23;20092;-72
2021/12/25 05:10:48;;;;;;;6.75;3.58;;;13.70;99.90;;;;;;6180649;23;20016;-72
2021/12/25 05:13:13;;;;;;;5.10;3.70;;;13.60;99.90;;;;;;6206001;23;20027;-72
2021/12/25 05:15:39;;;;;;;7.43;4.13;;;13.50;99.90;;;;;;6180234;23;20092;-71
2021/12/25 05:18:06;;;;;;;4.88;3.20;;;13.50;99.90;;;;;;6205948;23;20024;-74
2021/12/25 05:20:32;;;;;;;5.80;3.22;;;13.50;99.90;;;;;;6207349;23;20016;-70
2021/12/25 05:22:58;;;;;;;4.78;3.22;;;13.50;99.90;;;;;;6181585;23;20030;-72
2021/12/25 05:25:24;;;;;;;5.18;2.90;;;13.50;99.90;;;;;;6179665;23;20017;-71
2021/12/25 05:27:50;;;;;;;7.03;3.35;;;13.40;99.90;;;;;;6179796;23;20043;-72
2021/12/25 05:30:20;;;;;;;5.15;2.92;;;13.40;99.90;;;;;;6207211;23;20492;-72
2021/12/25 05:32:46;;;;;;;5.35;3.00;;;13.40;99.90;;;;;;6179070;23;20016;-72
2021/12/25 05:35:13;;;;;;;6.05;3.40;;;13.40;99.90;;;;;;6179298;23;20167;-71
2021/12/25 05:37:39;;;;;;;4.43;2.90;;;13.40;99.90;;;;;;6180988;23;20024;-71
2021/12/25 05:40:06;;;;;;;4.50;2.58;;;13.40;99.90;;;;;;6179515;23;20024;-71
2021/12/25 05:42:32;;;;;;;4.18;2.58;;;13.40;99.90;;;;;;6156043;23;20051;-73
2021/12/25 05:44:59;;;;;;;4.50;2.78;;;13.50;99.90;;;;;;6208939;23;20025;-72
2021/12/25 05:47:26;;;;;;;5.82;2.88;;;13.40;99.90;;;;;;6205485;23;20028;-73
2021/12/25 05:49:52;;;;;;;4.45;2.55;;;13.40;99.90;;;;;;6181618;23;20044;-71
2021/12/25 05:52:18;;;;;;;4.40;2.88;;;13.50;99.90;;;;;;6179785;23;20239;-72
2021/12/25 05:54:43;;;;;;;3.92;2.63;;;13.50;99.90;;;;;;6206862;23;20028;-72
2021/12/25 05:57:10;;;;;;;5.03;3.00;;;13.40;99.90;;;;;;6179772;23;20016;-72
2021/12/25 05:59:36;;;;;;;5.20;2.85;;;13.30;99.90;;;;;;6180908;23;20364;-71
2021/12/25 06:02:04;;;;;;;4.90;2.70;;;13.20;99.90;;;;;;6206355;23;20495;-72
2021/12/25 06:04:29;;;;;;;4.25;2.50;;;13.20;99.90;;;;;;6180542;23;20455;-71
2021/12/25 06:06:56;;;;;;;3.67;2.60;;;13.20;99.90;;;;;;6179667;23;20020;-73
2021/12/25 06:09:22;;;;;;;4.22;2.40;;;13.20;99.90;;;;;;6206503;23;20055;-72
2021/12/25 06:11:47;;;;;;;3.10;1.95;;;13.20;99.90;;;;;;6207214;23;20074;-73
2021/12/25 06:14:19;;;;;;;2.70;1.83;;;13.30;99.90;;;;;;6177801;23;20016;-72
2021/12/25 06:16:46;;;;;;;3.33;2.15;;;13.40;99.90;;;;;;6207668;23;20451;-71
2021/12/25 06:19:12;;;;;;;3.72;2.40;;;13.30;99.90;;;;;;6205481;23;20021;-72
2021/12/25 06:21:38;;;;;;;3.40;2.17;;;13.30;99.90;;;;;;6179692;23;20039;-73
2021/12/25 06:24:05;;;;;;;4.32;2.15;;;13.30;99.90;;;;;;6207332;23;20017;-73
2021/12/25 06:26:32;;;;;;;3.83;2.33;;;13.40;99.90;;;;;;6180167;23;20019;-72
2021/12/25 06:28:59;;;;;;;4.70;2.70;;;13.40;99.90;;;;;;6207023;23;20016;-72
2021/12/25 06:31:25;;;;;;;4.28;2.40;;;13.40;99.90;;;;;;6206925;23;20013;-71
2021/12/25 06:33:51;;;;;;;5.63;2.25;;;13.40;99.90;;;;;;6180334;23;20020;-72
2021/12/25 06:36:17;;;;;;;4.00;2.60;;;13.50;99.90;;;;;;6178511;23;20388;-71
2021/12/25 06:38:43;;;;;;;3.70;2.70;;;13.50;99.90;;;;;;6206306;23;20017;-72
2021/12/25 06:41:12;;;;;;;4.53;2.97;;;13.40;99.90;;;;;;6205711;23;20097;-71
2021/12/25 06:43:39;;;;;;;4.50;3.10;;;13.20;99.90;;;;;;6208337;23;20020;-72
2021/12/25 06:46:05;;;;;;;5.45;2.90;;;13.20;99.90;;;;;;6178629;23;20016;-72
2021/12/25 06:48:31;;;;;;;5.22;3.00;;;13.20;99.90;;;;;;6179761;23;20015;-72
2021/12/25 06:50:58;;;;;;;4.82;3.10;;;13.30;99.90;;;;;;6207859;23;20009;-73
2021/12/25 06:53:24;;;;;;;4.57;2.80;;;13.20;99.90;;;;;;6205108;23;20009;-72
2021/12/25 06:55:50;;;;;;;3.13;2.47;;;13.30;99.90;;;;;;6206733;23;20024;-71
2021/12/25 06:58:16;;;;;;;6.32;3.10;;;13.30;99.90;;;;;;6203598;23;20021;-72
2021/12/25 07:00:42;;;;;;;5.68;2.50;;;13.30;99.90;;;;;;6179872;23;20023;-72
2021/12/25 07:03:07;;;;;;;3.83;2.97;;;13.30;99.90;;;;;;6205966;23;20020;-72
2021/12/25 07:05:33;;;;;;;3.45;2.47;;;13.30;99.90;;;;;;6180611;23;20441;-72
2021/12/25 07:08:00;;;;;;;4.07;2.33;;;13.30;99.90;;;;;;6180986;23;20024;-74
2021/12/25 07:10:27;;;;;;;3.67;1.92;;;13.30;99.90;;;;;;6180608;23;20017;-71
2021/12/25 07:12:54;;;;;;;4.57;2.20;;;13.40;99.90;;;;;;6207710;23;20069;-73
2021/12/25 07:15:20;;;;;;;3.30;2.20;;;13.50;99.90;;;;;;6206064;23;20035;-72
2021/12/25 07:17:46;;;;;;;3.38;2.13;;;13.50;99.90;;;;;;6181908;23;20016;-72
2021/12/25 07:20:13;;;;;;;3.95;2.60;;;13.40;99.90;;;;;;6204275;23;20040;-71
2021/12/25 07:22:39;;;;;;;4.90;2.20;;;13.40;99.90;;;;;;6181992;23;20082;-73
2021/12/25 07:25:07;;;;;;;4.10;2.05;;;13.40;99.90;;;;;;6164720;23;20023;-72
2021/12/25 07:27:33;;;;;;;4.30;2.35;;;13.30;99.90;;;;;;6180611;23;20074;-72
2021/12/25 07:29:59;;;;;;;3.05;1.98;;;13.30;99.90;;;;;;6210310;23;20657;-71
2021/12/25 07:32:25;;;;;;;4.35;2.50;;;13.30;99.90;;;;;;6178679;23;20179;-72
2021/12/25 07:34:52;;;;;;;10.88;2.58;;;13.20;99.90;;;;;;6207162;23;20107;-70
2021/12/25 07:37:19;;;;;;;4.95;2.55;;;13.10;99.90;;;;;;6205386;23;20115;-71
2021/12/25 07:39:45;;;;;;;3.67;1.90;;;13.10;99.90;;;;;;6206314;23;20033;-72
2021/12/25 07:42:12;;;;;;;2.40;1.60;;;13.20;99.90;;;;;;6179341;23;20096;-72
2021/12/25 07:44:38;;;;;;;2.60;1.77;;;13.30;99.90;;;;;;6207572;23;20322;-72
2021/12/25 07:47:09;;;;;;;2.85;1.58;;;13.30;99.90;;;;;;6177974;23;20017;-72
2021/12/25 07:49:37;;;;;;;2.67;1.48;;;13.40;99.90;;;;;;6207515;23;20475;-73
2021/12/25 07:52:04;;;;;;;2.80;1.65;;;13.60;99.90;;;;;;6204851;23;20021;-72
2021/12/25 07:54:30;;;;;;;2.10;1.52;;;13.60;99.90;;;;;;6205743;23;20023;-71
2021/12/25 07:56:57;;;;;;;1.98;1.30;;;13.60;99.90;;;;;;6208308;23;20040;-73
2021/12/25 07:59:23;;;;;;;3.60;1.50;;;13.70;99.90;;;;;;6190000;23;20025;-73
2021/12/25 08:01:49;;;;;;;3.08;1.55;;;13.80;99.90;;;;;;6208004;23;20025;-71
2021/12/25 08:04:17;;;;;;;1.92;1.38;;;13.90;99.90;;;;;;6206032;23;20088;-71
2021/12/25 08:06:43;;;;;;;2.63;1.80;;;13.80;99.90;;;;;;6181334;23;20864;-72
2021/12/25 08:09:09;;;;;;;3.05;1.80;;;13.80;99.90;;;;;;6180802;23;20048;-72
2021/12/25 08:11:35;;;;;;;1.85;1.55;;;13.80;99.90;;;;;;6182575;23;20035;-71
2021/12/25 08:14:02;;;;;;;3.90;2.17;;;13.80;99.90;;;;;;6181464;23;20024;-72
2021/12/25 08:16:28;;;;;;;2.03;1.40;;;13.70;99.90;;;;;;6181001;23;20019;-72
2021/12/25 08:18:56;;;;;;;2.85;1.98;;;13.80;99.90;;;;;;6208429;23;20039;-73
2021/12/25 08:21:22;;;;;;;3.92;1.70;;;13.80;99.90;;;;;;6207747;23;20021;-72
2021/12/25 08:23:49;;;;;;;4.00;1.70;;;14.20;99.90;;;;;;6207797;23;20040;-72
2021/12/25 08:26:16;;;;;;;2.55;1.65;;;14.70;99.90;;;;;;6207294;23;20020;-73
2021/12/25 08:28:43;;;;;;;2.22;1.42;;;14.60;99.90;;;;;;6182665;23;20059;-73
2021/12/25 08:31:09;;;;;;;2.08;1.48;;;14.60;99.90;;;;;;6207047;23;20099;-73
2021/12/25 08:33:35;;;;;;;2.75;1.50;;;15.60;99.90;;;;;;6181735;23;20043;-72
2021/12/25 08:36:02;;;;;;;1.40;1.30;;;16.60;99.90;;;;;;6181961;23;20028;-72
2021/12/25 08:38:28;;;;;;;1.77;1.27;;;17.40;99.90;;;;;;6180278;23;20344;-72
2021/12/25 08:40:56;;;;;;;1.33;1.20;;;18.40;99.90;;;;;;6210033;23;20074;-71
2021/12/25 08:43:24;;;;;;;1.17;0.73;;;18.60;99.90;;;;;;6206768;23;20020;-74
2021/12/25 08:46:02;;;;;;;1.33;0.75;;;18.00;99.90;;;;;;6142867;23;20055;-72
2021/12/25 08:48:30;;;;;;;1.13;0.77;;;17.10;99.90;;;;;;6179001;23;20020;-73
2021/12/25 08:50:59;;;;;;;1.27;0.90;;;16.30;99.90;;;;;;6182277;23;20121;-73
2021/12/25 08:53:27;;;;;;;1.00;0.70;;;16.00;99.90;;;;;;6165509;23;20024;-72
2021/12/25 08:55:55;;;;;;;1.30;0.90;;;15.70;99.90;;;;;;6182051;23;20039;-71
2021/12/25 08:58:21;;;;;;;0.98;0.80;;;15.60;99.90;;;;;;6179514;23;20024;-72
2021/12/25 09:00:54;;;;;;;2.22;0.80;;;15.50;99.90;;;;;;6181095;23;20017;-75
2021/12/25 09:03:37;;;;;;;1.55;0.90;;;15.40;99.90;;;;;;6164947;23;20512;-75
2021/12/25 09:06:04;;;;;;;1.38;1.02;;;15.40;99.90;;;;;;6207831;23;20032;-72
2021/12/25 09:08:31;;;;;;;1.30;0.93;;;15.40;99.90;;;;;;6208680;23;20063;-73
2021/12/25 09:10:57;;;;;;;0.85;0.68;;;15.40;99.90;;;;;;6208675;23;20530;-73
2021/12/25 09:13:24;;;;;;;3.22;0.85;;;15.50;99.90;;;;;;6208377;23;20455;-74
2021/12/25 09:15:50;;;;;;;1.33;0.73;;;15.60;99.90;;;;;;6208714;23;20059;-72
2021/12/25 09:18:16;;;;;;;1.33;0.73;;;15.70;99.90;;;;;;6183300;23;20017;-74
2021/12/25 09:20:43;;;;;;;0.93;0.70;;;15.70;99.90;;;;;;6208418;23;20039;-75
2021/12/25 09:23:09;;;;;;;2.35;0.70;;;15.90;99.90;;;;;;6182822;23;20028;-72
2021/12/25 09:25:35;;;;;;;1.85;0.85;;;15.90;99.90;;;;;;6208467;23;20139;-72
2021/12/25 09:28:02;;;;;;;1.67;0.77;;;16.00;99.90;;;;;;6182019;23;20401;-71
2021/12/25 09:30:29;;;;;;;1.73;0.90;;;16.00;99.90;;;;;;6206699;23;20012;-72
2021/12/25 09:32:55;;;;;;;1.42;0.95;;;15.80;99.90;;;;;;6209039;23;20515;-72
2021/12/25 09:35:22;;;;;;;0.77;0.70;;;15.80;99.90;;;;;;6205891;23;20456;-72
2021/12/25 09:37:48;;;;;;;1.35;0.70;;;15.80;99.90;;;;;;6211374;23;20013;-74
2021/12/25 09:40:14;;;;;;;1.20;0.70;;;15.90;99.90;;;;;;6207324;23;20051;-73
2021/12/25 09:42:43;;;;;;;1.25;0.65;;;15.80;99.90;;;;;;6208774;23;20017;-72
2021/12/25 09:45:11;;;;;;;0.55;0.55;;;15.70;99.90;;;;;;6182624;23;20031;-71
2021/12/25 09:47:38;;;;;;;1.17;0.80;;;15.70;99.90;;;;;;6208254;23;20451;-72
2021/12/25 09:50:06;;;;;;;1.42;0.80;;;15.70;99.90;;;;;;6177560;23;20040;-72
2021/12/25 09:52:34;;;;;;;1.90;0.60;;;15.70;99.90;;;;;;6181585;23;20008;-74
2021/12/25 09:55:00;;;;;;;1.73;0.82;;;15.70;99.90;;;;;;6209963;23;20368;-73
2021/12/25 09:57:26;;;;;;;1.27;0.90;;;15.80;99.90;;;;;;6207029;23;20051;-71
2021/12/25 09:59:53;;;;;;;1.05;0.65;;;15.80;99.90;;;;;;6183219;23;20505;-72
2021/12/25 10:02:21;;;;;;;1.48;0.80;;;15.70;99.90;;;;;;6206262;23;20028;-74
2021/12/25 10:04:51;;;;;;;1.30;0.88;;;15.90;99.90;;;;;;6208379;23;20009;-72
2021/12/25 10:07:20;;;;;;;3.13;1.02;;;16.00;99.90;;;;;;6179140;23;20016;-72
2021/12/25 10:10:07;;;;;;;1.40;1.00;;;16.10;99.90;;;;;;6180828;23;20352;-72
2021/12/25 10:12:42;;;;;;;1.05;0.80;;;16.10;99.90;;;;;;6183826;23;20020;-74
2021/12/25 10:15:12;;;;;;;2.33;1.05;;;16.10;99.90;;;;;;6209769;23;20035;-74
2021/12/25 10:17:55;;;;;;;1.20;0.90;;;16.20;99.90;;;;;;6207664;23;20020;-72
2021/12/25 10:20:24;;;;;;;0.95;0.70;;;16.20;99.90;;;;;;6180163;23;20741;-72
2021/12/25 10:23:07;;;;;;;2.80;0.70;;;16.40;99.90;;;;;;6208964;23;20008;-72
2021/12/25 10:25:42;;;;;;;0.82;0.70;;;16.60;99.90;;;;;;6208464;23;20348;-72
2021/12/25 10:28:10;;;;;;;3.00;0.90;;;17.20;99.90;;;;;;6179937;23;20083;-72
2021/12/25 10:31:16;;;;;;;2.45;1.00;;;18.10;99.90;;;;;;6159340;23;20020;-75
2021/12/25 10:33:53;;;;;;;0.85;0.70;;;18.80;99.90;;;;;;5991492;23;20054;-72
2021/12/25 10:36:34;;;;;;;3.08;0.80;;;18.90;99.90;;;;;;6170102;23;20186;-73
2021/12/25 10:39:08;;;;;;;0.88;0.75;;;19.40;99.90;;;;;;6156738;23;20020;-74
2021/12/25 10:41:38;;;;;;;2.13;1.05;;;18.60;99.90;;;;;;6158234;23;20058;-73
2021/12/25 10:44:18;;;;;;;1.60;1.00;;;19.10;99.90;;;;;;6142048;23;20017;-71
2021/12/25 10:47:00;;;;;;;2.08;1.63;;;18.90;99.90;;;;;;6181928;23;20036;-72
2021/12/25 10:49:30;;;;;;;1.53;1.13;;;18.90;99.90;;;;;;6206019;23;20020;-72
2021/12/25 10:52:30;;;;;;;1.58;1.17;;;19.10;99.90;;;;;;6179842;23;20365;-73
2021/12/25 10:54:58;;;;;;;3.55;1.45;;;19.30;99.90;;;;;;6179064;23;20032;-73
2021/12/25 10:57:30;;;;;;;1.77;1.10;;;19.50;99.90;;;;;;6179510;23;20024;-72
2021/12/25 10:59:57;;;;;;;2.20;1.10;;;19.00;99.90;;;;;;6181612;23;20148;-72
2021/12/25 11:02:32;;;;;;;2.85;1.30;;;19.40;99.90;;;;;;6178510;23;20020;-73
2021/12/25 11:04:59;;;;;;;2.15;1.20;;;19.60;99.90;;;;;;6165681;23;20044;-73
2021/12/25 11:07:26;;;;;;;1.27;1.05;;;19.40;99.90;;;;;;6206330;23;20044;-72
2021/12/25 11:10:24;;;;;;;1.77;0.90;;;19.70;99.90;;;;;;6181592;23;20346;-72
2021/12/25 11:12:50;;;;;;;1.83;1.00;;;19.70;99.90;;;;;;6156476;23;20424;-73
2021/12/25 11:15:30;;;;;;;1.55;1.00;;;19.90;99.90;;;;;;6206732;23;20032;-72
2021/12/25 11:18:06;;;;;;;1.63;1.30;;;20.10;99.90;;;;;;6208802;23;20013;-73
2021/12/25 11:20:38;;;;;;;1.98;1.10;;;19.90;99.90;;;;;;6182070;23;20023;-75
2021/12/25 11:23:07;;;;;;;1.35;1.10;;;18.90;99.90;;;;;;6155990;23;20021;-72
2021/12/25 11:25:35;;;;;;;1.92;1.20;;;19.90;99.90;;;;;;6181917;23;20021;-72
2021/12/25 11:28:06;;;;;;;1.73;1.40;;;19.10;99.90;;;;;;6181329;23;20024;-72
2021/12/25 11:30:35;;;;;;;1.38;1.00;;;19.70;99.90;;;;;;6155602;23;20016;-72
2021/12/25 11:33:02;;;;;;;1.23;1.00;;;19.60;99.90;;;;;;6206909;23;20095;-74
2021/12/25 11:35:29;;;;;;;1.35;1.05;;;20.20;99.90;;;;;;6205169;23;20020;-74
2021/12/25 11:37:58;;;;;;;2.30;1.17;;;20.20;99.70;;;;;;6161082;23;20147;-74
2021/12/25 11:40:28;;;;;;;1.45;0.90;;;20.40;99.70;;;;;;6187526;23;20028;-76
2021/12/25 11:43:00;;;;;;;1.65;1.13;;;20.00;99.80;;;;;;6183812;23;20039;-74
2021/12/25 11:45:37;;;;;;;;;;;20.80;99.30;;;;;;6182456;23;20017;-75
2021/12/25 11:48:21;;;;;;;1.17;0.65;;;21.10;99.10;;;;;;6180602;23;20429;-75
2021/12/25 11:50:52;;;;;;;1.13;1.00;;;21.50;98.40;;;;;;6182870;23;20019;-73
2021/12/25 11:53:41;;;;;;;1.58;1.00;;;21.80;98.00;;;;;;6181540;23;20021;-76
2021/12/25 11:58:57;;;;;;;1.40;0.90;;;21.40;97.60;;;;;;6211497;23;20131;-74
2021/12/25 12:01:28;;;;;;;2.80;0.80;;;21.80;97.50;;;;;;6206491;23;20025;-73
2021/12/25 12:04:15;;;;;;;1.90;1.30;;;21.60;96.90;;;;;;6210333;23;20129;-73
2021/12/25 12:06:47;;;;;;;1.27;1.00;;;21.40;97.20;;;;;;6209086;23;20016;-72
2021/12/25 12:09:14;;;;;;;1.35;1.02;;;21.60;96.80;;;;;;6179548;23;20043;-74
2021/12/25 12:11:45;;;;;;;1.42;0.90;;;22.10;96.80;;;;;;6171693;23;20020;-73
2021/12/25 12:14:21;;;;;;;1.67;1.00;;;21.90;96.30;;;;;;6156012;23;20051;-73
2021/12/25 12:16:54;;;;;;;1.45;1.02;;;21.70;96.60;;;;;;6182141;23;20036;-74
2021/12/25 12:22:35;;;;;;;2.30;1.63;;;20.70;97.70;;;;;;6208033;23;20071;-72
2021/12/25 12:27:48;;;;;;;1.75;1.27;;;21.50;97.10;;;;;;6206048;23;20028;-74
2021/12/25 12:30:34;;;;;;;1.75;1.20;;;22.20;96.50;;;;;;6206816;23;20009;-76
2021/12/25 12:33:20;;;;;;;1.50;1.08;;;22.20;96.10;;;;;;6182050;23;20044;-76
2021/12/25 12:35:49;;;;;;;2.85;1.10;;;23.10;95.70;;;;;;6117755;23;20020;-72
2021/12/25 12:38:38;;;;;;;2.47;1.45;;;23.10;95.30;;;;;;6167476;23;20504;-73
2021/12/25 12:41:20;;;;;;;1.83;1.10;;;23.70;95.50;;;;;;6179398;23;20028;-72
2021/12/25 12:44:03;;;;;;;2.17;1.25;;;23.40;95.40;;;;;;6208362;23;20015;-74
2021/12/25 12:46:47;;;;;;;1.83;1.40;;;23.70;95.10;;;;;;6180818;23;20115;-73
2021/12/25 12:49:19;;;;;;;1.45;1.08;;;23.80;94.90;;;;;;6206786;23;20575;-74
2021/12/25 12:52:20;;;;;;;1.80;1.33;;;23.60;95.00;;;;;;6183219;23;20028;-72
2021/12/25 12:55:30;;;;;;;4.45;1.60;;;22.90;95.10;;;;;;6136453;23;20092;-75
2021/12/25 12:58:20;;;;;;;2.42;1.40;;;22.70;95.60;;;;;;6110750;23;20013;-74
2021/12/25 13:00:48;;;;;;;4.20;1.52;;;23.20;95.20;;;;;;6182366;23;20009;-73
2021/12/25 13:03:15;;;;;;;2.88;1.23;;;23.20;94.90;;;;;;6178436;23;20737;-73
2021/12/25 13:05:48;;;;;;;1.55;1.20;;;22.80;94.90;;;;;;6208264;23;20086;-72
2021/12/25 13:08:23;;;;;;;2.65;1.30;;;22.80;94.90;;;;;;6183369;23;20019;-73
2021/12/25 13:10:51;;;;;;;1.55;1.20;;;23.30;94.70;;;;;;6182203;23;20028;-74
2021/12/25 13:13:34;;;;;;;2.83;1.30;;;22.70;94.70;;;;;;6181893;23;20027;-73
2021/12/25 13:16:06;;;;;;;1.58;1.00;;;22.20;95.30;;;;;;6210360;23;20024;-73
2021/12/25 13:18:45;;;;;;;2.17;1.30;;;22.10;95.10;;;;;;6208308;23;20017;-74
2021/12/25 13:21:30;;;;;;;4.00;1.30;;;21.00;96.10;;;;;;6173725;23;20021;-76
2021/12/25 13:24:08;;;;;;;1.10;0.93;;;20.40;96.80;;;;;;6200700;23;20056;-72
2021/12/25 13:26:39;;;;;;;1.83;1.33;;;19.90;97.40;;;;;;6180657;23;20067;-73
2021/12/25 13:29:10;;;;;;;2.37;1.23;;;20.90;96.70;;;;;;6181466;23;20034;-73
2021/12/25 13:31:38;;;;;;;2.35;1.25;;;21.70;95.90;;;;;;6208391;23;20021;-77
2021/12/25 13:34:11;;;;;;;2.42;1.35;;;22.00;95.20;;;;;;6192395;23;20020;-74
2021/12/25 13:36:40;;;;;;;2.03;1.13;;;22.50;94.90;;;;;;6207875;23;20456;-73
2021/12/25 13:39:16;;;;;;;1.85;1.15;;;22.30;95.10;;;;;;6207083;23;20081;-75
2021/12/25 13:41:52;;;;;;;2.03;1.10;;;21.90;95.20;;;;;;6181246;23;20009;-72
2021/12/25 13:44:30;;;;;;;2.17;1.40;;;22.10;95.30;;;;;;6205936;23;20020;-74
2021/12/25 13:47:21;;;;;;;2.88;1.50;;;21.40;95.90;;;;;;6181987;23;20135;-73
2021/12/25 13:49:54;;;;;;;2.42;1.20;;;22.00;95.30;;;;;;6180081;23;20016;-74
2021/12/25 13:52:20;;;;;;;2.25;1.20;;;21.70;95.50;;;;;;6155006;23;20345;-72
2021/12/25 13:54:55;;;;;;;2.40;1.30;;;21.40;95.90;;;;;;6208743;23;20020;-72
2021/12/25 13:57:23;;;;;;;2.70;1.30;;;22.50;95.20;;;;;;6179900;23;20044;-73
2021/12/25 13:59:51;;;;;;;3.83;1.48;;;22.20;94.90;;;;;;6156709;23;20505;-72
2021/12/25 14:02:18;;;;;;;6.20;1.30;;;21.90;95.50;;;;;;6178614;23;20688;-72
2021/12/25 14:04:46;;;;;;;2.95;1.20;;;21.30;95.20;;;;;;6180530;23;20017;-75
2021/12/25 14:07:16;;;;;;;4.07;1.92;;;22.70;94.50;;;;;;6178744;23;20027;-73
2021/12/25 14:10:12;;;;;;;4.25;1.67;;;22.50;94.70;;;;;;6182252;23;20005;-73
2021/12/25 14:12:43;;;;;;;1.98;1.13;;;22.30;94.40;;;;;;6138255;23;20021;-74
2021/12/25 14:15:11;;;;;;;1.80;0.85;;;22.20;94.10;;;;;;6206161;23;20045;-72
2021/12/25 14:17:40;;;;;;;1.83;1.00;;;21.80;93.80;;;;;;6207365;23;20103;-73